עמוד ראשי
METAR-TAF:

METAR-TAF

שדות תעופה :

Wadi ad-Dawasir, ערב הסעודית

קו רוחב: 20-30N, קו אורך: 045-12E, גובה: 624מטר

תצפית מזג אוויר נוכחית

הדו"ח נערך לפני 1 שעות ו 6דקות, בשעה 20:00 UTC
רוח 2קשר מכיוון דרום/דרום-מערב
טמפרטורת 36 צלסיוס
לחות 10%
לחץ 1006 hPa
ראות 10 קילומטר או יותר
ללא עננים שבסיסם נמוך מ 5000 רגל או קומולונימבוס

METAR: OEWD 132000Z 21002KT CAVOK 36/M01 Q1006

זמן: 00:06 (21:06 UTC)

תחזית

הדו"ח נערך לפני 10 שעות ו 6דקות, בשעה 11:00 UTC
תחזית בתוקף מ 13 ב 12 UTC עד 14 ב 18 UTC
רוח 8קשר מכיוון מזרח/צפון-מזרח
ראות 10 קילומטר או יותר
מעט עננים בגובה 4000רגל
יעשה מ
13 ב 18 UTC עד 13 ב 20 UTC
רוח 12קשר מכיוון דרום
ראות: 7000מטר
הסתברות 30% :
זמנית מ -
13 ב 18 UTC עד 14 ב 00 UTC
מעט עננים בגובה 2500רגל , קומולונימבוס.
עננים פזורים בגובה 4000רגל
יעשה מ
14 ב 04 UTC עד 14 ב 06 UTC
רוח 6קשר מכיוון צפון/צפון-מערב
ראות 10 קילומטר או יותר

TAF: OEWD 131100Z 1312/1418 06008KT 9999 FEW040 BECMG 1318/1320 19012KT 7000 PROB30 TEMPO 1318/1400 FEW025CB SCT040 BECMG 1404/1406 33006KT 9999

תצפיות ותחזיות מזג אוויר לגבי יותר מ- 4,000 שדות תעופה ברחבי העולם. דוחות METAR ו- TAF.

התחנות הזמינות מסומנות בנקודות צהובות ואדומות על גבי המפה.

העבר את העכבר לנקודה הצבעונית על מנת לראות את שם התחנה.

לאחר מכן, לחץ כדי לראות את תוכן ואת תחזיות מזג האוויר.

כדי לשנות את המפה: לחץ על הכפתורים הירוקים עם הפלוס השחור כדי להתקרב; על הכפתור הירוק עם המקף כדי להתרחק; או בחיצים הירוקים למפות סמוכות.


METAR-TAF: